sensor_id;sensor_type;location;lat;lon;timestamp;temperature;humidity
15257;DHT22;7731;50.720;6.912;2023-02-02T00:00:44;7.40;99.90
15257;DHT22;7731;50.720;6.912;2023-02-02T00:03:15;7.40;99.90
15257;DHT22;7731;50.720;6.912;2023-02-02T00:05:50;7.50;99.90
15257;DHT22;7731;50.720;6.912;2023-02-02T00:08:24;7.40;99.90
15257;DHT22;7731;50.720;6.912;2023-02-02T00:10:54;7.40;99.90
15257;DHT22;7731;50.720;6.912;2023-02-02T00:13:24;7.40;99.90
15257;DHT22;7731;50.720;6.912;2023-02-02T00:15:54;7.30;99.90
15257;DHT22;7731;50.720;6.912;2023-02-02T00:18:27;7.30;99.90
15257;DHT22;7731;50.720;6.912;2023-02-02T00:20:57;7.40;99.90
15257;DHT22;7731;50.720;6.912;2023-02-02T00:23:30;7.40;99.90
15257;DHT22;7731;50.720;6.912;2023-02-02T00:26:00;7.60;99.90
15257;DHT22;7731;50.720;6.912;2023-02-02T00:28:30;7.60;99.90
15257;DHT22;7731;50.720;6.912;2023-02-02T00:31:00;7.50;99.90
15257;DHT22;7731;50.720;6.912;2023-02-02T00:33:30;7.40;99.90
15257;DHT22;7731;50.720;6.912;2023-02-02T00:36:00;7.30;99.90
15257;DHT22;7731;50.720;6.912;2023-02-02T00:38:33;7.30;99.90
15257;DHT22;7731;50.720;6.912;2023-02-02T00:41:04;7.40;99.90
15257;DHT22;7731;50.720;6.912;2023-02-02T00:43:34;7.40;99.90
15257;DHT22;7731;50.720;6.912;2023-02-02T00:46:05;7.40;99.90
15257;DHT22;7731;50.720;6.912;2023-02-02T00:48:39;7.50;99.90
15257;DHT22;7731;50.720;6.912;2023-02-02T00:51:19;7.50;99.90
15257;DHT22;7731;50.720;6.912;2023-02-02T00:53:52;7.50;99.90
15257;DHT22;7731;50.720;6.912;2023-02-02T00:56:22;7.40;99.90
15257;DHT22;7731;50.720;6.912;2023-02-02T00:58:52;7.40;99.90
15257;DHT22;7731;50.720;6.912;2023-02-02T01:01:22;7.50;99.90
15257;DHT22;7731;50.720;6.912;2023-02-02T01:03:52;7.40;99.90
15257;DHT22;7731;50.720;6.912;2023-02-02T01:06:23;7.40;99.90
15257;DHT22;7731;50.720;6.912;2023-02-02T01:08:58;7.40;99.90
15257;DHT22;7731;50.720;6.912;2023-02-02T01:11:28;7.50;99.90
15257;DHT22;7731;50.720;6.912;2023-02-02T01:13:59;7.60;99.90
15257;DHT22;7731;50.720;6.912;2023-02-02T01:16:29;7.60;99.90
15257;DHT22;7731;50.720;6.912;2023-02-02T01:18:59;7.60;99.90
15257;DHT22;7731;50.720;6.912;2023-02-02T01:21:30;7.60;99.90
15257;DHT22;7731;50.720;6.912;2023-02-02T01:24:03;7.50;99.90
15257;DHT22;7731;50.720;6.912;2023-02-02T01:26:33;7.50;99.90
15257;DHT22;7731;50.720;6.912;2023-02-02T01:29:03;7.50;99.90
15257;DHT22;7731;50.720;6.912;2023-02-02T01:31:34;7.50;99.90
15257;DHT22;7731;50.720;6.912;2023-02-02T01:34:04;7.50;99.90
15257;DHT22;7731;50.720;6.912;2023-02-02T01:36:34;7.50;99.90
15257;DHT22;7731;50.720;6.912;2023-02-02T01:39:08;7.60;99.90
15257;DHT22;7731;50.720;6.912;2023-02-02T01:41:39;7.60;99.90
15257;DHT22;7731;50.720;6.912;2023-02-02T01:47:36;7.60;99.90
15257;DHT22;7731;50.720;6.912;2023-02-02T01:50:13;7.70;99.90
15257;DHT22;7731;50.720;6.912;2023-02-02T01:52:48;7.60;99.90
15257;DHT22;7731;50.720;6.912;2023-02-02T01:55:26;7.50;99.90
15257;DHT22;7731;50.720;6.912;2023-02-02T01:58:00;7.50;99.90
15257;DHT22;7731;50.720;6.912;2023-02-02T02:00:33;7.50;99.90
15257;DHT22;7731;50.720;6.912;2023-02-02T02:03:06;7.50;99.90
15257;DHT22;7731;50.720;6.912;2023-02-02T02:05:43;7.50;99.90
15257;DHT22;7731;50.720;6.912;2023-02-02T02:08:19;7.50;99.90
15257;DHT22;7731;50.720;6.912;2023-02-02T02:10:56;7.50;99.90
15257;DHT22;7731;50.720;6.912;2023-02-02T02:13:27;7.40;99.90
15257;DHT22;7731;50.720;6.912;2023-02-02T02:16:17;7.60;99.90
15257;DHT22;7731;50.720;6.912;2023-02-02T02:19:00;7.50;99.90
15257;DHT22;7731;50.720;6.912;2023-02-02T02:21:52;7.50;99.90
15257;DHT22;7731;50.720;6.912;2023-02-02T02:31:55;7.70;99.90
15257;DHT22;7731;50.720;6.912;2023-02-02T02:34:57;7.70;99.90
15257;DHT22;7731;50.720;6.912;2023-02-02T02:37:38;7.70;99.90
15257;DHT22;7731;50.720;6.912;2023-02-02T02:40:21;7.70;99.90
15257;DHT22;7731;50.720;6.912;2023-02-02T02:42:57;7.70;99.90
15257;DHT22;7731;50.720;6.912;2023-02-02T02:45:31;7.60;99.90
15257;DHT22;7731;50.720;6.912;2023-02-02T02:48:07;7.60;99.90
15257;DHT22;7731;50.720;6.912;2023-02-02T02:50:38;7.60;99.90
15257;DHT22;7731;50.720;6.912;2023-02-02T02:53:12;7.60;99.90
15257;DHT22;7731;50.720;6.912;2023-02-02T02:55:48;7.50;99.90
15257;DHT22;7731;50.720;6.912;2023-02-02T02:58:34;7.50;99.90
15257;DHT22;7731;50.720;6.912;2023-02-02T03:01:18;7.60;99.90
15257;DHT22;7731;50.720;6.912;2023-02-02T03:04:08;7.60;99.90
15257;DHT22;7731;50.720;6.912;2023-02-02T03:06:51;7.70;99.90
15257;DHT22;7731;50.720;6.912;2023-02-02T03:09:29;7.70;99.90
15257;DHT22;7731;50.720;6.912;2023-02-02T03:12:04;7.70;99.90
15257;DHT22;7731;50.720;6.912;2023-02-02T03:14:35;7.50;99.90
15257;DHT22;7731;50.720;6.912;2023-02-02T03:17:08;7.50;99.90
15257;DHT22;7731;50.720;6.912;2023-02-02T03:19:41;7.50;99.90
15257;DHT22;7731;50.720;6.912;2023-02-02T03:22:11;7.60;99.90
15257;DHT22;7731;50.720;6.912;2023-02-02T03:24:41;7.50;99.90
15257;DHT22;7731;50.720;6.912;2023-02-02T03:27:11;7.50;99.90
15257;DHT22;7731;50.720;6.912;2023-02-02T03:29:41;7.50;99.90
15257;DHT22;7731;50.720;6.912;2023-02-02T03:32:12;7.50;99.90
15257;DHT22;7731;50.720;6.912;2023-02-02T03:34:44;7.60;99.90
15257;DHT22;7731;50.720;6.912;2023-02-02T03:37:15;7.60;99.90
15257;DHT22;7731;50.720;6.912;2023-02-02T03:39:45;7.60;99.90
15257;DHT22;7731;50.720;6.912;2023-02-02T03:42:15;7.60;99.90
15257;DHT22;7731;50.720;6.912;2023-02-02T03:44:46;7.60;99.90
15257;DHT22;7731;50.720;6.912;2023-02-02T03:47:16;7.60;99.90
15257;DHT22;7731;50.720;6.912;2023-02-02T03:49:48;7.50;99.90
15257;DHT22;7731;50.720;6.912;2023-02-02T03:52:18;7.50;99.90
15257;DHT22;7731;50.720;6.912;2023-02-02T03:54:50;7.50;99.90
15257;DHT22;7731;50.720;6.912;2023-02-02T03:57:20;7.50;99.90
15257;DHT22;7731;50.720;6.912;2023-02-02T03:59:50;7.60;99.90
15257;DHT22;7731;50.720;6.912;2023-02-02T04:02:21;7.60;99.90
15257;DHT22;7731;50.720;6.912;2023-02-02T04:04:54;7.60;99.90
15257;DHT22;7731;50.720;6.912;2023-02-02T04:07:24;7.50;99.90
15257;DHT22;7731;50.720;6.912;2023-02-02T04:09:54;7.50;99.90
15257;DHT22;7731;50.720;6.912;2023-02-02T04:12:24;7.50;99.90
15257;DHT22;7731;50.720;6.912;2023-02-02T04:14:54;7.60;99.90
15257;DHT22;7731;50.720;6.912;2023-02-02T04:17:25;7.60;99.90
15257;DHT22;7731;50.720;6.912;2023-02-02T04:19:57;7.60;99.90
15257;DHT22;7731;50.720;6.912;2023-02-02T04:22:28;7.60;99.90
15257;DHT22;7731;50.720;6.912;2023-02-02T04:24:58;7.50;99.90
15257;DHT22;7731;50.720;6.912;2023-02-02T04:27:28;7.50;99.90
15257;DHT22;7731;50.720;6.912;2023-02-02T04:30:00;7.40;99.90
15257;DHT22;7731;50.720;6.912;2023-02-02T04:32:31;7.50;99.90
15257;DHT22;7731;50.720;6.912;2023-02-02T04:35:05;7.50;99.90
15257;DHT22;7731;50.720;6.912;2023-02-02T04:37:36;7.50;99.90
15257;DHT22;7731;50.720;6.912;2023-02-02T04:40:09;7.50;99.90
15257;DHT22;7731;50.720;6.912;2023-02-02T04:42:41;7.50;99.90
15257;DHT22;7731;50.720;6.912;2023-02-02T04:45:11;7.40;99.90
15257;DHT22;7731;50.720;6.912;2023-02-02T04:47:41;7.50;99.90
15257;DHT22;7731;50.720;6.912;2023-02-02T04:50:14;7.50;99.90
15257;DHT22;7731;50.720;6.912;2023-02-02T04:52:45;7.50;99.90
15257;DHT22;7731;50.720;6.912;2023-02-02T04:55:15;7.50;99.90
15257;DHT22;7731;50.720;6.912;2023-02-02T04:57:46;7.50;99.90
15257;DHT22;7731;50.720;6.912;2023-02-02T05:00:16;7.50;99.90
15257;DHT22;7731;50.720;6.912;2023-02-02T05:02:47;7.40;99.90
15257;DHT22;7731;50.720;6.912;2023-02-02T05:05:21;7.50;99.90
15257;DHT22;7731;50.720;6.912;2023-02-02T05:07:53;7.50;99.90
15257;DHT22;7731;50.720;6.912;2023-02-02T05:10:23;7.60;99.90
15257;DHT22;7731;50.720;6.912;2023-02-02T05:12:53;7.60;99.90
15257;DHT22;7731;50.720;6.912;2023-02-02T05:15:24;7.70;99.90
15257;DHT22;7731;50.720;6.912;2023-02-02T05:17:54;7.70;99.90
15257;DHT22;7731;50.720;6.912;2023-02-02T05:20:30;7.60;99.90
15257;DHT22;7731;50.720;6.912;2023-02-02T05:23:00;7.60;99.90
15257;DHT22;7731;50.720;6.912;2023-02-02T05:25:30;7.60;99.90
15257;DHT22;7731;50.720;6.912;2023-02-02T05:28:01;7.60;99.90
15257;DHT22;7731;50.720;6.912;2023-02-02T05:30:32;7.50;99.90
15257;DHT22;7731;50.720;6.912;2023-02-02T05:33:02;7.60;99.90
15257;DHT22;7731;50.720;6.912;2023-02-02T05:35:37;7.60;99.90
15257;DHT22;7731;50.720;6.912;2023-02-02T05:38:07;7.60;99.90
15257;DHT22;7731;50.720;6.912;2023-02-02T05:40:39;7.60;99.90
15257;DHT22;7731;50.720;6.912;2023-02-02T05:43:10;7.60;99.90
15257;DHT22;7731;50.720;6.912;2023-02-02T05:45:40;7.60;99.90
15257;DHT22;7731;50.720;6.912;2023-02-02T05:48:13;7.60;99.90
15257;DHT22;7731;50.720;6.912;2023-02-02T05:50:48;7.50;99.90
15257;DHT22;7731;50.720;6.912;2023-02-02T05:53:29;7.50;99.90
15257;DHT22;7731;50.720;6.912;2023-02-02T05:56:02;7.50;99.90
15257;DHT22;7731;50.720;6.912;2023-02-02T05:58:32;7.60;99.90
15257;DHT22;7731;50.720;6.912;2023-02-02T06:01:03;7.60;99.90
15257;DHT22;7731;50.720;6.912;2023-02-02T06:03:33;7.60;99.90
15257;DHT22;7731;50.720;6.912;2023-02-02T06:06:06;7.50;99.90
15257;DHT22;7731;50.720;6.912;2023-02-02T06:08:37;7.60;99.90
15257;DHT22;7731;50.720;6.912;2023-02-02T06:11:09;7.60;99.90
15257;DHT22;7731;50.720;6.912;2023-02-02T06:13:40;7.60;99.90
15257;DHT22;7731;50.720;6.912;2023-02-02T06:16:12;7.60;99.90
15257;DHT22;7731;50.720;6.912;2023-02-02T06:18:42;7.70;99.90
15257;DHT22;7731;50.720;6.912;2023-02-02T06:21:17;7.60;99.90
15257;DHT22;7731;50.720;6.912;2023-02-02T06:23:50;7.50;99.90
15257;DHT22;7731;50.720;6.912;2023-02-02T06:26:20;7.60;99.90
15257;DHT22;7731;50.720;6.912;2023-02-02T06:28:52;7.60;99.90
15257;DHT22;7731;50.720;6.912;2023-02-02T06:31:23;7.60;99.90
15257;DHT22;7731;50.720;6.912;2023-02-02T06:33:55;7.60;99.90
15257;DHT22;7731;50.720;6.912;2023-02-02T06:36:29;7.60;99.90
15257;DHT22;7731;50.720;6.912;2023-02-02T06:38:59;7.60;99.90
15257;DHT22;7731;50.720;6.912;2023-02-02T06:41:30;7.60;99.90
15257;DHT22;7731;50.720;6.912;2023-02-02T06:44:01;7.70;99.90
15257;DHT22;7731;50.720;6.912;2023-02-02T06:46:31;7.60;99.90
15257;DHT22;7731;50.720;6.912;2023-02-02T06:49:01;7.60;99.90
15257;DHT22;7731;50.720;6.912;2023-02-02T06:51:34;7.60;99.90
15257;DHT22;7731;50.720;6.912;2023-02-02T06:54:05;7.60;99.90
15257;DHT22;7731;50.720;6.912;2023-02-02T06:56:35;7.60;99.90
15257;DHT22;7731;50.720;6.912;2023-02-02T06:59:05;7.60;99.90
15257;DHT22;7731;50.720;6.912;2023-02-02T07:01:36;7.60;99.90
15257;DHT22;7731;50.720;6.912;2023-02-02T07:04:06;7.60;99.90
15257;DHT22;7731;50.720;6.912;2023-02-02T07:06:39;7.70;99.90
15257;DHT22;7731;50.720;6.912;2023-02-02T07:09:09;7.70;99.90
15257;DHT22;7731;50.720;6.912;2023-02-02T07:11:39;7.70;99.90
15257;DHT22;7731;50.720;6.912;2023-02-02T07:14:11;7.50;99.90
15257;DHT22;7731;50.720;6.912;2023-02-02T07:16:41;7.60;99.90
15257;DHT22;7731;50.720;6.912;2023-02-02T07:19:12;7.70;99.90
15257;DHT22;7731;50.720;6.912;2023-02-02T07:21:49;7.70;99.90
15257;DHT22;7731;50.720;6.912;2023-02-02T07:24:19;7.60;99.90
15257;DHT22;7731;50.720;6.912;2023-02-02T07:26:49;7.60;99.90
15257;DHT22;7731;50.720;6.912;2023-02-02T07:29:19;7.60;99.90
15257;DHT22;7731;50.720;6.912;2023-02-02T07:31:49;7.70;99.90
15257;DHT22;7731;50.720;6.912;2023-02-02T07:34:20;7.70;99.90
15257;DHT22;7731;50.720;6.912;2023-02-02T07:36:52;7.80;99.90
15257;DHT22;7731;50.720;6.912;2023-02-02T07:39:25;7.90;99.90
15257;DHT22;7731;50.720;6.912;2023-02-02T07:41:55;7.80;99.90
15257;DHT22;7731;50.720;6.912;2023-02-02T07:44:28;7.80;99.90
15257;DHT22;7731;50.720;6.912;2023-02-02T07:46:58;7.70;99.90
15257;DHT22;7731;50.720;6.912;2023-02-02T07:49:28;7.70;99.90
15257;DHT22;7731;50.720;6.912;2023-02-02T07:52:01;7.80;99.90
15257;DHT22;7731;50.720;6.912;2023-02-02T07:54:31;7.70;99.90
15257;DHT22;7731;50.720;6.912;2023-02-02T07:57:01;7.80;99.90
15257;DHT22;7731;50.720;6.912;2023-02-02T07:59:31;7.70;99.90
15257;DHT22;7731;50.720;6.912;2023-02-02T08:02:01;7.80;99.90
15257;DHT22;7731;50.720;6.912;2023-02-02T08:04:34;7.80;99.90
15257;DHT22;7731;50.720;6.912;2023-02-02T08:07:07;7.80;99.90
15257;DHT22;7731;50.720;6.912;2023-02-02T08:09:44;7.80;99.90
15257;DHT22;7731;50.720;6.912;2023-02-02T08:12:14;7.80;99.90
15257;DHT22;7731;50.720;6.912;2023-02-02T08:14:44;7.80;99.90
15257;DHT22;7731;50.720;6.912;2023-02-02T08:17:14;7.80;99.90
15257;DHT22;7731;50.720;6.912;2023-02-02T08:19:44;7.90;99.90
15257;DHT22;7731;50.720;6.912;2023-02-02T08:22:19;7.90;99.90
15257;DHT22;7731;50.720;6.912;2023-02-02T08:24:49;7.90;99.90
15257;DHT22;7731;50.720;6.912;2023-02-02T08:27:19;7.90;99.90
15257;DHT22;7731;50.720;6.912;2023-02-02T08:29:50;7.90;99.90
15257;DHT22;7731;50.720;6.912;2023-02-02T08:32:20;8.00;99.90
15257;DHT22;7731;50.720;6.912;2023-02-02T08:34:50;8.00;99.90
15257;DHT22;7731;50.720;6.912;2023-02-02T08:37:24;7.90;99.90
15257;DHT22;7731;50.720;6.912;2023-02-02T08:39:54;8.00;99.90
15257;DHT22;7731;50.720;6.912;2023-02-02T08:42:27;8.00;99.90
15257;DHT22;7731;50.720;6.912;2023-02-02T08:44:57;8.10;99.90
15257;DHT22;7731;50.720;6.912;2023-02-02T08:47:47;8.10;99.90
15257;DHT22;7731;50.720;6.912;2023-02-02T08:50:36;8.10;99.90
15257;DHT22;7731;50.720;6.912;2023-02-02T08:53:11;8.10;99.90
15257;DHT22;7731;50.720;6.912;2023-02-02T08:55:41;8.10;99.90
15257;DHT22;7731;50.720;6.912;2023-02-02T08:58:15;8.00;99.90
15257;DHT22;7731;50.720;6.912;2023-02-02T09:00:45;8.00;99.90
15257;DHT22;7731;50.720;6.912;2023-02-02T09:03:16;8.00;99.90
15257;DHT22;7731;50.720;6.912;2023-02-02T09:05:46;8.00;99.90
15257;DHT22;7731;50.720;6.912;2023-02-02T09:08:18;8.00;99.90
15257;DHT22;7731;50.720;6.912;2023-02-02T09:10:49;7.90;99.90
15257;DHT22;7731;50.720;6.912;2023-02-02T09:13:22;8.00;99.90
15257;DHT22;7731;50.720;6.912;2023-02-02T09:15:52;7.90;99.90
15257;DHT22;7731;50.720;6.912;2023-02-02T09:18:22;8.00;99.90
15257;DHT22;7731;50.720;6.912;2023-02-02T09:20:52;7.90;99.90
15257;DHT22;7731;50.720;6.912;2023-02-02T09:23:25;8.00;99.90
15257;DHT22;7731;50.720;6.912;2023-02-02T09:26:08;8.00;99.90
15257;DHT22;7731;50.720;6.912;2023-02-02T09:28:42;8.10;99.90
15257;DHT22;7731;50.720;6.912;2023-02-02T09:31:14;8.10;99.90
15257;DHT22;7731;50.720;6.912;2023-02-02T09:33:44;8.10;99.90
15257;DHT22;7731;50.720;6.912;2023-02-02T09:36:17;8.10;99.90
15257;DHT22;7731;50.720;6.912;2023-02-02T09:38:51;8.10;99.90
15257;DHT22;7731;50.720;6.912;2023-02-02T09:41:52;8.20;99.90
15257;DHT22;7731;50.720;6.912;2023-02-02T09:44:55;8.10;99.90
15257;DHT22;7731;50.720;6.912;2023-02-02T09:47:52;8.20;99.90
15257;DHT22;7731;50.720;6.912;2023-02-02T09:50:42;8.20;99.90
15257;DHT22;7731;50.720;6.912;2023-02-02T09:53:20;8.20;99.90
15257;DHT22;7731;50.720;6.912;2023-02-02T09:56:07;8.30;99.90
15257;DHT22;7731;50.720;6.912;2023-02-02T09:58:54;8.30;99.90
15257;DHT22;7731;50.720;6.912;2023-02-02T10:01:46;8.30;99.90
15257;DHT22;7731;50.720;6.912;2023-02-02T10:04:23;8.30;99.90
15257;DHT22;7731;50.720;6.912;2023-02-02T10:07:05;8.30;99.90
15257;DHT22;7731;50.720;6.912;2023-02-02T10:09:45;8.20;99.90
15257;DHT22;7731;50.720;6.912;2023-02-02T10:12:32;8.20;99.90
15257;DHT22;7731;50.720;6.912;2023-02-02T10:15:20;8.30;99.90
15257;DHT22;7731;50.720;6.912;2023-02-02T10:18:05;8.30;99.90
15257;DHT22;7731;50.720;6.912;2023-02-02T10:20:45;8.50;99.90
15257;DHT22;7731;50.720;6.912;2023-02-02T10:23:24;8.50;99.90
15257;DHT22;7731;50.720;6.912;2023-02-02T10:26:02;8.40;99.90
15257;DHT22;7731;50.720;6.912;2023-02-02T10:28:54;8.30;99.90
15257;DHT22;7731;50.720;6.912;2023-02-02T10:31:41;8.20;99.90
15257;DHT22;7731;50.720;6.912;2023-02-02T10:34:22;8.20;99.90
15257;DHT22;7731;50.720;6.912;2023-02-02T10:37:04;8.20;99.90
15257;DHT22;7731;50.720;6.912;2023-02-02T10:39:56;8.30;99.90
15257;DHT22;7731;50.720;6.912;2023-02-02T10:42:42;8.20;99.90
15257;DHT22;7731;50.720;6.912;2023-02-02T10:45:38;8.20;99.90
15257;DHT22;7731;50.720;6.912;2023-02-02T10:48:14;8.20;99.90
15257;DHT22;7731;50.720;6.912;2023-02-02T10:50:48;8.30;99.90
15257;DHT22;7731;50.720;6.912;2023-02-02T10:53:25;8.30;99.90
15257;DHT22;7731;50.720;6.912;2023-02-02T10:55:59;8.30;99.90
15257;DHT22;7731;50.720;6.912;2023-02-02T10:58:39;8.20;99.90
15257;DHT22;7731;50.720;6.912;2023-02-02T11:01:17;8.20;99.90
15257;DHT22;7731;50.720;6.912;2023-02-02T11:03:49;8.30;99.90
15257;DHT22;7731;50.720;6.912;2023-02-02T11:06:41;8.30;99.90
15257;DHT22;7731;50.720;6.912;2023-02-02T11:09:20;8.60;99.90
15257;DHT22;7731;50.720;6.912;2023-02-02T11:11:58;8.80;99.90
15257;DHT22;7731;50.720;6.912;2023-02-02T11:14:38;8.90;99.90
15257;DHT22;7731;50.720;6.912;2023-02-02T11:17:19;9.00;99.90
15257;DHT22;7731;50.720;6.912;2023-02-02T11:19:52;8.90;99.90
15257;DHT22;7731;50.720;6.912;2023-02-02T11:22:29;8.90;99.90
15257;DHT22;7731;50.720;6.912;2023-02-02T11:25:03;9.00;99.90
15257;DHT22;7731;50.720;6.912;2023-02-02T11:27:39;9.00;99.90
15257;DHT22;7731;50.720;6.912;2023-02-02T11:30:22;9.00;99.90
15257;DHT22;7731;50.720;6.912;2023-02-02T11:33:19;9.10;99.90
15257;DHT22;7731;50.720;6.912;2023-02-02T11:35:57;9.20;99.90
15257;DHT22;7731;50.720;6.912;2023-02-02T11:38:29;9.10;99.90
15257;DHT22;7731;50.720;6.912;2023-02-02T11:41:02;9.10;99.90
15257;DHT22;7731;50.720;6.912;2023-02-02T11:43:39;9.10;99.90
15257;DHT22;7731;50.720;6.912;2023-02-02T11:46:19;9.10;99.90
15257;DHT22;7731;50.720;6.912;2023-02-02T11:48:59;9.10;99.90
15257;DHT22;7731;50.720;6.912;2023-02-02T11:51:34;9.10;99.90
15257;DHT22;7731;50.720;6.912;2023-02-02T11:54:06;9.10;99.90
15257;DHT22;7731;50.720;6.912;2023-02-02T11:56:49;9.10;99.90
15257;DHT22;7731;50.720;6.912;2023-02-02T11:59:27;9.00;99.90
15257;DHT22;7731;50.720;6.912;2023-02-02T12:08:12;8.90;99.90
15257;DHT22;7731;50.720;6.912;2023-02-02T12:10:46;8.90;99.90
15257;DHT22;7731;50.720;6.912;2023-02-02T12:13:35;8.90;99.90
15257;DHT22;7731;50.720;6.912;2023-02-02T12:16:25;9.10;99.90
15257;DHT22;7731;50.720;6.912;2023-02-02T12:19:28;9.30;99.90
15257;DHT22;7731;50.720;6.912;2023-02-02T12:22:36;9.50;99.90
15257;DHT22;7731;50.720;6.912;2023-02-02T12:25:47;9.50;99.90
15257;DHT22;7731;50.720;6.912;2023-02-02T12:28:40;9.70;99.90
15257;DHT22;7731;50.720;6.912;2023-02-02T12:31:24;9.70;99.90
15257;DHT22;7731;50.720;6.912;2023-02-02T12:34:18;9.90;99.90
15257;DHT22;7731;50.720;6.912;2023-02-02T12:37:10;10.00;99.90
15257;DHT22;7731;50.720;6.912;2023-02-02T12:40:06;10.00;99.90
15257;DHT22;7731;50.720;6.912;2023-02-02T12:43:09;10.10;99.90
15257;DHT22;7731;50.720;6.912;2023-02-02T12:52:36;10.10;99.90
15257;DHT22;7731;50.720;6.912;2023-02-02T12:55:35;10.10;99.90
15257;DHT22;7731;50.720;6.912;2023-02-02T12:58:24;10.00;99.90
15257;DHT22;7731;50.720;6.912;2023-02-02T13:01:20;9.90;99.90
15257;DHT22;7731;50.720;6.912;2023-02-02T13:07:27;10.00;99.90
15257;DHT22;7731;50.720;6.912;2023-02-02T13:10:11;10.00;99.90
15257;DHT22;7731;50.720;6.912;2023-02-02T13:12:53;10.00;99.90
15257;DHT22;7731;50.720;6.912;2023-02-02T13:15:31;10.00;99.90
15257;DHT22;7731;50.720;6.912;2023-02-02T13:18:07;9.90;99.90
15257;DHT22;7731;50.720;6.912;2023-02-02T13:20:44;9.90;99.90
15257;DHT22;7731;50.720;6.912;2023-02-02T13:23:23;9.80;99.90
15257;DHT22;7731;50.720;6.912;2023-02-02T13:26:00;9.80;99.90
15257;DHT22;7731;50.720;6.912;2023-02-02T13:28:41;9.80;99.90
15257;DHT22;7731;50.720;6.912;2023-02-02T13:31:21;9.70;99.90
15257;DHT22;7731;50.720;6.912;2023-02-02T13:34:04;9.50;99.90
15257;DHT22;7731;50.720;6.912;2023-02-02T13:36:41;9.40;99.90
15257;DHT22;7731;50.720;6.912;2023-02-02T13:39:19;9.30;99.90
15257;DHT22;7731;50.720;6.912;2023-02-02T13:41:54;9.40;99.90
15257;DHT22;7731;50.720;6.912;2023-02-02T13:44:31;9.50;99.90
15257;DHT22;7731;50.720;6.912;2023-02-02T13:47:10;9.60;99.90
15257;DHT22;7731;50.720;6.912;2023-02-02T13:49:51;9.50;99.90
15257;DHT22;7731;50.720;6.912;2023-02-02T13:52:39;9.50;99.90
15257;DHT22;7731;50.720;6.912;2023-02-02T13:58:43;9.40;99.90
15257;DHT22;7731;50.720;6.912;2023-02-02T14:01:30;9.40;99.90
15257;DHT22;7731;50.720;6.912;2023-02-02T14:04:02;9.50;99.90
15257;DHT22;7731;50.720;6.912;2023-02-02T14:06:52;9.50;99.90
15257;DHT22;7731;50.720;6.912;2023-02-02T14:09:27;9.70;99.90
15257;DHT22;7731;50.720;6.912;2023-02-02T14:12:02;9.80;99.90
15257;DHT22;7731;50.720;6.912;2023-02-02T14:14:36;9.80;99.90
15257;DHT22;7731;50.720;6.912;2023-02-02T14:17:48;9.90;99.90
15257;DHT22;7731;50.720;6.912;2023-02-02T14:20:43;10.00;99.90
15257;DHT22;7731;50.720;6.912;2023-02-02T14:26:39;9.80;99.90
15257;DHT22;7731;50.720;6.912;2023-02-02T14:29:34;9.80;99.90
15257;DHT22;7731;50.720;6.912;2023-02-02T14:32:31;9.90;99.90
15257;DHT22;7731;50.720;6.912;2023-02-02T14:42:03;10.20;99.90
15257;DHT22;7731;50.720;6.912;2023-02-02T14:45:25;10.10;99.90
15257;DHT22;7731;50.720;6.912;2023-02-02T14:48:07;10.00;99.90
15257;DHT22;7731;50.720;6.912;2023-02-02T14:50:46;9.90;99.90
15257;DHT22;7731;50.720;6.912;2023-02-02T14:53:22;9.80;99.90
15257;DHT22;7731;50.720;6.912;2023-02-02T14:55:59;9.70;99.90
15257;DHT22;7731;50.720;6.912;2023-02-02T14:58:33;9.70;99.90
15257;DHT22;7731;50.720;6.912;2023-02-02T15:01:11;9.70;99.90
15257;DHT22;7731;50.720;6.912;2023-02-02T15:03:56;9.70;99.90
15257;DHT22;7731;50.720;6.912;2023-02-02T15:06:52;9.80;99.90
15257;DHT22;7731;50.720;6.912;2023-02-02T15:09:40;9.60;99.90
15257;DHT22;7731;50.720;6.912;2023-02-02T15:12:17;9.70;99.90
15257;DHT22;7731;50.720;6.912;2023-02-02T15:15:04;9.70;99.90
15257;DHT22;7731;50.720;6.912;2023-02-02T15:17:59;9.70;99.90
15257;DHT22;7731;50.720;6.912;2023-02-02T15:20:44;9.70;99.90
15257;DHT22;7731;50.720;6.912;2023-02-02T15:23:23;9.70;99.90
15257;DHT22;7731;50.720;6.912;2023-02-02T15:26:02;9.70;99.90
15257;DHT22;7731;50.720;6.912;2023-02-02T15:28:40;9.60;99.90
15257;DHT22;7731;50.720;6.912;2023-02-02T15:31:17;9.50;99.90
15257;DHT22;7731;50.720;6.912;2023-02-02T15:33:58;9.50;99.90
15257;DHT22;7731;50.720;6.912;2023-02-02T15:36:37;9.40;99.90
15257;DHT22;7731;50.720;6.912;2023-02-02T15:39:18;9.30;99.90
15257;DHT22;7731;50.720;6.912;2023-02-02T15:41:57;9.40;99.90
15257;DHT22;7731;50.720;6.912;2023-02-02T15:44:43;9.40;99.90
15257;DHT22;7731;50.720;6.912;2023-02-02T15:47:16;9.40;99.90
15257;DHT22;7731;50.720;6.912;2023-02-02T15:49:52;9.40;99.90
15257;DHT22;7731;50.720;6.912;2023-02-02T15:52:29;9.40;99.90
15257;DHT22;7731;50.720;6.912;2023-02-02T15:55:19;9.50;99.90
15257;DHT22;7731;50.720;6.912;2023-02-02T15:57:51;9.40;99.90
15257;DHT22;7731;50.720;6.912;2023-02-02T16:00:29;9.40;99.90
15257;DHT22;7731;50.720;6.912;2023-02-02T16:03:09;9.40;99.90
15257;DHT22;7731;50.720;6.912;2023-02-02T16:05:45;9.40;99.90
15257;DHT22;7731;50.720;6.912;2023-02-02T16:08:24;9.40;99.90
15257;DHT22;7731;50.720;6.912;2023-02-02T16:11:04;9.40;99.90
15257;DHT22;7731;50.720;6.912;2023-02-02T16:13:38;9.40;99.90
15257;DHT22;7731;50.720;6.912;2023-02-02T16:16:24;9.40;99.90
15257;DHT22;7731;50.720;6.912;2023-02-02T16:19:12;9.40;99.90
15257;DHT22;7731;50.720;6.912;2023-02-02T16:21:47;9.40;99.90
15257;DHT22;7731;50.720;6.912;2023-02-02T16:24:28;9.40;99.90
15257;DHT22;7731;50.720;6.912;2023-02-02T16:27:04;9.40;99.90
15257;DHT22;7731;50.720;6.912;2023-02-02T16:29:38;9.30;99.90
15257;DHT22;7731;50.720;6.912;2023-02-02T16:32:28;9.30;99.90
15257;DHT22;7731;50.720;6.912;2023-02-02T16:35:01;9.40;99.90
15257;DHT22;7731;50.720;6.912;2023-02-02T16:37:34;9.40;99.90
15257;DHT22;7731;50.720;6.912;2023-02-02T16:40:23;9.30;99.90
15257;DHT22;7731;50.720;6.912;2023-02-02T16:43:05;9.30;99.90
15257;DHT22;7731;50.720;6.912;2023-02-02T16:45:45;9.20;99.90
15257;DHT22;7731;50.720;6.912;2023-02-02T16:48:27;9.30;99.90
15257;DHT22;7731;50.720;6.912;2023-02-02T16:51:07;9.30;99.90
15257;DHT22;7731;50.720;6.912;2023-02-02T16:53:57;9.30;99.90
15257;DHT22;7731;50.720;6.912;2023-02-02T16:56:34;9.20;99.90
15257;DHT22;7731;50.720;6.912;2023-02-02T16:59:14;9.20;99.90
15257;DHT22;7731;50.720;6.912;2023-02-02T17:01:50;9.20;99.90
15257;DHT22;7731;50.720;6.912;2023-02-02T17:04:25;9.10;99.90
15257;DHT22;7731;50.720;6.912;2023-02-02T17:07:05;9.10;99.90
15257;DHT22;7731;50.720;6.912;2023-02-02T17:09:40;9.10;99.90
15257;DHT22;7731;50.720;6.912;2023-02-02T17:12:25;9.10;99.90
15257;DHT22;7731;50.720;6.912;2023-02-02T17:15:23;9.10;99.90
15257;DHT22;7731;50.720;6.912;2023-02-02T17:18:01;9.00;99.90
15257;DHT22;7731;50.720;6.912;2023-02-02T17:20:33;9.00;99.90
15257;DHT22;7731;50.720;6.912;2023-02-02T17:23:06;9.00;99.90
15257;DHT22;7731;50.720;6.912;2023-02-02T17:25:40;9.00;99.90
15257;DHT22;7731;50.720;6.912;2023-02-02T17:28:18;9.10;99.90
15257;DHT22;7731;50.720;6.912;2023-02-02T17:30:54;9.10;99.90
15257;DHT22;7731;50.720;6.912;2023-02-02T17:33:32;9.00;99.90
15257;DHT22;7731;50.720;6.912;2023-02-02T17:36:04;9.00;99.90
15257;DHT22;7731;50.720;6.912;2023-02-02T17:38:36;9.00;99.90
15257;DHT22;7731;50.720;6.912;2023-02-02T17:41:08;9.00;99.90
15257;DHT22;7731;50.720;6.912;2023-02-02T17:43:43;8.90;99.90